Time;durP1;ratioP1;P1;durP2;ratioP2;P2;SDS_P1;SDS_P2;PMS_P1;PMS_P2;Temp;Humidity;BMP_temperature;BMP_pressure;BME280_temperature;BME280_humidity;BME280_pressure;Samples;Min_cycle;Max_cycle;Signal;HPM_P1;HPM_P2
2021/11/07 00:07:12;;;;;;;;;21.50;16.75;;;;;11.33;64.77;102290.13;5015988;28;46085;-66
2021/11/07 00:12:14;;;;;;;;;18.50;18.25;;;;;11.34;64.44;102280.44;5015416;28;45566;-70
2021/11/07 00:14:40;;;;;;;;;20.25;15.50;;;;;11.37;64.48;102277.66;5012619;28;45218;-68
2021/11/07 00:17:06;;;;;;;;;26.00;21.50;;;;;11.39;64.67;102270.56;5014848;28;45311;-65
2021/11/07 00:19:39;;;;;;;;;22.50;17.50;;;;;11.40;64.61;102259.97;5014599;28;45289;-70
2021/11/07 00:22:19;;;;;;;;;18.50;14.75;;;;;11.41;64.70;102264.31;5014375;28;45448;-68
2021/11/07 00:24:52;;;;;;;;;19.25;18.75;;;;;11.43;64.66;102256.34;5015303;28;45406;-66
2021/11/07 00:27:29;;;;;;;;;21.25;19.25;;;;;11.42;64.12;102258.13;5018443;28;45539;-63
2021/11/07 00:30:16;;;;;;;;;22.75;17.50;;;;;11.43;64.19;102254.56;5017725;28;45471;-66
2021/11/07 00:38:07;;;;;;;;;21.75;18.00;;;;;11.43;64.08;102261.59;5016425;28;45884;-64
2021/11/07 00:43:44;;;;;;;;;20.00;18.25;;;;;11.45;64.02;102259.75;5021521;28;45479;-66
2021/11/07 00:54:12;;;;;;;;;15.25;15.25;;;;;11.52;63.96;102247.19;5015066;28;45549;-63
2021/11/07 00:56:51;;;;;;;;;18.50;15.50;;;;;11.54;63.94;102248.03;5013337;28;45492;-63
2021/11/07 00:59:24;;;;;;;;;19.25;16.00;;;;;11.57;64.21;102242.59;5016957;28;45710;-64
2021/11/07 01:01:59;;;;;;;;;16.50;14.50;;;;;11.58;63.70;102249.59;5023061;28;45401;-64
2021/11/07 01:04:27;;;;;;;;;15.50;14.75;;;;;11.57;63.89;102229.41;5017238;28;45402;-64
2021/11/07 01:06:53;;;;;;;;;16.75;14.50;;;;;11.55;64.22;102226.84;5015472;28;45657;-66
2021/11/07 01:09:18;;;;;;;;;18.75;13.00;;;;;11.56;63.86;102227.69;5017225;28;45521;-63
2021/11/07 01:11:44;;;;;;;;;14.75;14.25;;;;;11.56;63.98;102220.63;5018799;28;45448;-66
2021/11/07 01:14:11;;;;;;;;;12.50;10.50;;;;;11.56;64.06;102212.72;5013271;28;45377;-67
2021/11/07 01:16:37;;;;;;;;;15.00;12.00;;;;;11.57;64.14;102210.94;5017041;28;45294;-67
2021/11/07 01:19:04;;;;;;;;;15.00;12.25;;;;;11.58;64.43;102202.94;5012640;28;45848;-63
2021/11/07 01:21:34;;;;;;;;;15.00;13.00;;;;;11.59;64.33;102203.81;5014614;28;45499;-64
2021/11/07 01:24:03;;;;;;;;;15.00;14.00;;;;;11.59;64.43;102201.16;5010669;28;45439;-64
2021/11/07 01:26:34;;;;;;;;;17.25;13.00;;;;;11.56;64.27;102183.69;5014251;28;45463;-63
2021/11/07 01:29:11;;;;;;;;;13.50;13.00;;;;;11.57;64.67;102177.50;5008877;28;45571;-64
2021/11/07 01:31:38;;;;;;;;;16.00;12.00;;;;;11.59;64.65;102177.41;5014249;28;45497;-64
2021/11/07 01:34:05;;;;;;;;;14.25;11.50;;;;;11.58;64.58;102171.28;5012832;28;45479;-64
2021/11/07 01:36:37;;;;;;;;;13.00;11.00;;;;;11.58;64.54;102173.06;5014594;28;45549;-64
2021/11/07 01:39:16;;;;;;;;;13.25;11.00;;;;;11.57;64.47;102163.44;5008844;28;46236;-64
2021/11/07 01:42:06;;;;;;;;;14.50;12.50;;;;;11.56;64.86;102159.94;5013827;28;45622;-64
2021/11/07 01:44:51;;;;;;;;;12.50;10.75;;;;;11.58;64.77;102151.94;5013659;28;45514;-64
2021/11/07 01:47:17;;;;;;;;;9.25;9.25;;;;;11.59;64.74;102159.81;5011463;28;45321;-64
2021/11/07 01:49:44;;;;;;;;;13.50;11.75;;;;;11.58;64.99;102158.09;5012629;28;46456;-64
2021/11/07 01:52:11;;;;;;;;;13.50;11.50;;;;;11.58;64.87;102149.31;5011185;28;45461;-64
2021/11/07 01:55:20;;;;;;;;;11.00;9.25;;;;;11.60;65.10;102153.59;5011011;28;45382;-64
2021/11/07 01:57:30;;;;;;;;;14.00;12.50;;;;;11.62;64.80;102150.91;5006011;28;45313;-64
2021/11/07 02:00:02;;;;;;;;;15.50;11.50;;;;;11.62;65.28;102158.84;5013148;28;45471;-64
2021/11/07 02:02:32;;;;;;;;;14.25;13.00;;;;;11.62;65.06;102153.56;5016844;28;45220;-64
2021/11/07 02:04:58;;;;;;;;;18.75;14.75;;;;;11.62;65.24;102149.13;5012897;28;45440;-64
2021/11/07 02:07:24;;;;;;;;;10.00;10.00;;;;;11.64;65.39;102157.00;5012664;28;45527;-64
2021/11/07 02:09:50;;;;;;;;;13.75;9.75;;;;;11.63;65.38;102158.78;5013642;28;45396;-64
2021/11/07 02:12:17;;;;;;;;;16.00;10.25;;;;;11.65;65.17;102146.34;5012408;28;45352;-64
2021/11/07 02:14:43;;;;;;;;;10.00;10.00;;;;;11.65;65.35;102138.44;5010564;28;45499;-63
2021/11/07 02:17:10;;;;;;;;;14.75;10.25;;;;;11.68;65.30;102142.72;5014327;28;45492;-64
2021/11/07 02:19:36;;;;;;;;;15.00;12.25;;;;;11.66;65.33;102140.16;5012119;28;45266;-63
2021/11/07 02:22:02;;;;;;;;;16.75;11.00;;;;;11.70;65.62;102127.72;5012320;28;45468;-63
2021/11/07 02:24:28;;;;;;;;;12.75;10.00;;;;;11.72;65.94;102125.84;5008026;28;45479;-64
2021/11/07 02:27:01;;;;;;;;;12.25;9.75;;;;;11.71;66.43;102132.91;5013789;28;45664;-63
2021/11/07 02:29:28;;;;;;;;;13.75;12.50;;;;;11.70;66.73;102135.63;5034535;28;46199;-64
2021/11/07 02:31:57;;;;;;;;;13.25;9.75;;;;;11.68;66.92;102126.88;5031748;28;45267;-64
2021/11/07 02:34:25;;;;;;;;;16.00;10.75;;;;;11.65;67.28;102127.88;5033056;28;45271;-63
2021/11/07 02:36:52;;;;;;;;;16.00;14.25;;;;;11.64;67.78;102118.25;5031876;28;45448;-63
2021/11/07 02:39:18;;;;;;;;;14.25;11.00;;;;;11.64;68.21;102118.25;5034046;28;45645;-65
2021/11/07 02:41:45;;;;;;;;;12.75;10.00;;;;;11.65;68.18;102119.09;5033402;28;45443;-63
2021/11/07 02:44:24;;;;;;;;;13.50;12.25;;;;;11.66;68.50;102107.63;5018525;28;45503;-63
2021/11/07 02:46:50;;;;;;;;;10.00;9.75;;;;;11.66;68.99;102105.84;5033678;28;45182;-63
2021/11/07 02:49:16;;;;;;;;;11.75;9.25;;;;;11.66;68.91;102107.63;5031646;28;45234;-63
2021/11/07 02:51:42;;;;;;;;;8.75;6.00;;;;;11.66;69.64;102095.28;5037124;28;45290;-63
2021/11/07 02:54:08;;;;;;;;;10.25;9.00;;;;;11.67;70.01;102104.06;5035014;28;45374;-64
2021/11/07 02:56:34;;;;;;;;;9.75;9.75;;;;;11.68;70.04;102087.28;5033601;28;45418;-63
2021/11/07 02:59:01;;;;;;;;;8.75;8.75;;;;;11.67;70.05;102090.88;5031081;28;45419;-63
2021/11/07 03:01:28;;;;;;;;;8.00;7.25;;;;;11.68;70.35;102092.56;5035061;28;45496;-63
2021/11/07 03:04:01;;;;;;;;;13.50;11.00;;;;;11.68;70.65;102085.50;5033083;28;45297;-64
2021/11/07 03:06:32;;;;;;;;;9.75;8.25;;;;;11.66;70.55;102087.38;5036477;28;45315;-63
2021/11/07 03:08:58;;;;;;;;;16.00;10.00;;;;;11.66;70.84;102079.44;5031314;28;45482;-63
2021/11/07 03:11:23;;;;;;;;;10.00;9.00;;;;;11.67;70.87;102078.53;5034325;28;45518;-63
2021/11/07 03:13:50;;;;;;;;;8.50;8.25;;;;;11.66;70.95;102084.72;5035087;28;45530;-63
2021/11/07 03:16:16;;;;;;;;;11.25;9.00;;;;;11.65;70.91;102076.88;5034871;28;45376;-63
2021/11/07 03:18:42;;;;;;;;;11.75;10.75;;;;;11.64;71.31;102078.66;5034788;28;46228;-63
2021/11/07 03:21:09;;;;;;;;;13.50;11.50;;;;;11.61;71.36;102077.91;5035765;28;45525;-63
2021/11/07 03:23:43;;;;;;;;;2.00;0.00;;;;;11.60;71.74;102076.19;5035760;28;45317;-63
2021/11/07 03:26:14;;;;;;;;;9.75;9.00;;;;;11.60;71.47;102082.34;5036928;28;45428;-64
2021/11/07 03:28:42;;;;;;;;;12.25;10.50;;;;;11.60;71.81;102076.19;5037393;28;46399;-64
2021/11/07 03:33:44;;;;;;;;;11.25;10.00;;;;;11.59;71.77;102072.72;5037685;28;45289;-64
2021/11/07 03:36:15;;;;;;;;;13.00;13.00;;;;;11.62;71.95;102071.75;5036037;28;45360;-64
2021/11/07 03:38:41;;;;;;;;;12.25;11.50;;;;;11.64;72.13;102068.09;5037589;28;45456;-64
2021/11/07 03:41:06;;;;;;;;;15.00;12.50;;;;;11.66;71.99;102068.88;5038199;28;45505;-64
2021/11/07 03:43:32;;;;;;;;;13.50;9.50;;;;;11.67;72.18;102064.47;5039265;28;45507;-64
2021/11/07 03:45:58;;;;;;;;;10.25;9.75;;;;;11.66;72.22;102063.59;5037634;28;45576;-64
2021/11/07 03:48:24;;;;;;;;;12.25;11.00;;;;;11.69;71.84;102062.59;5039573;28;45335;-64
2021/11/07 03:50:51;;;;;;;;;14.50;13.00;;;;;11.70;71.83;102069.63;5040866;28;45276;-63
2021/11/07 03:53:17;;;;;;;;;12.75;12.25;;;;;11.69;71.97;102062.59;5036150;28;45248;-64
2021/11/07 03:55:42;;;;;;;;;12.25;10.75;;;;;11.68;71.99;102063.53;5038748;28;45415;-64
2021/11/07 03:58:08;;;;;;;;;13.75;11.75;;;;;11.68;72.22;102069.66;5038365;28;45363;-64
2021/11/07 04:00:35;;;;;;;;;17.75;14.00;;;;;11.69;71.97;102067.88;5036961;28;45273;-64
2021/11/07 04:03:00;;;;;;;;;17.50;15.25;;;;;11.69;72.37;102062.59;5039965;28;45498;-64
2021/11/07 04:05:26;;;;;;;;;15.50;13.00;;;;;11.66;72.35;102060.97;5038145;28;45273;-64
2021/11/07 04:07:52;;;;;;;;;13.00;13.00;;;;;11.65;72.45;102059.25;5038584;28;46112;-64
2021/11/07 04:10:18;;;;;;;;;13.75;11.25;;;;;11.65;72.36;102051.34;5035668;28;45245;-64
2021/11/07 04:12:43;;;;;;;;;14.50;11.75;;;;;11.65;72.14;102047.84;5038820;28;45316;-63
2021/11/07 04:15:10;;;;;;;;;16.50;13.75;;;;;11.66;72.51;102050.41;5040164;28;45563;-63
2021/11/07 04:17:37;;;;;;;;;14.50;12.50;;;;;11.64;72.44;102047.00;5038905;28;45445;-63
2021/11/07 04:20:06;;;;;;;;;18.25;13.00;;;;;11.64;72.53;102035.56;5036557;28;45367;-63
2021/11/07 04:22:32;;;;;;;;;15.50;13.50;;;;;11.62;72.72;102035.66;5038548;28;45345;-63
2021/11/07 04:24:58;;;;;;;;;2.25;2.00;;;;;11.63;72.81;102039.16;5036460;28;45449;-63
2021/11/07 04:27:25;;;;;;;;;14.25;13.50;;;;;11.65;73.04;102038.16;5039035;28;45452;-63
2021/11/07 04:29:51;;;;;;;;;16.25;15.75;;;;;11.66;72.49;102037.22;5037111;28;45447;-63
2021/11/07 04:32:17;;;;;;;;;17.00;15.00;;;;;11.67;72.63;102023.09;5039441;28;45368;-63
2021/11/07 04:34:43;;;;;;;;;13.00;13.00;;;;;11.67;72.87;102028.38;5035509;28;45397;-63
2021/11/07 04:37:09;;;;;;;;;17.00;14.00;;;;;11.70;72.83;102035.31;5037592;28;45437;-63
2021/11/07 04:39:34;;;;;;;;;17.50;14.25;;;;;11.69;72.36;102023.00;5041554;28;45434;-63
2021/11/07 04:42:00;;;;;;;;;14.00;13.00;;;;;11.70;72.78;102032.69;5038989;28;45349;-63
2021/11/07 04:44:27;;;;;;;;;16.25;14.00;;;;;11.71;72.85;102029.97;5036341;28;45332;-63
2021/11/07 04:46:53;;;;;;;;;14.00;12.25;;;;;11.74;72.83;102036.88;5038922;28;45309;-63
2021/11/07 04:49:19;;;;;;;;;16.75;14.25;;;;;11.75;72.86;102028.03;5036326;28;45217;-63
2021/11/07 04:51:45;;;;;;;;;10.75;6.50;;;;;11.75;72.71;102010.41;5039595;28;45301;-63
2021/11/07 04:54:10;;;;;;;;;12.25;11.00;;;;;11.73;72.68;102011.41;5036745;28;45340;-63
2021/11/07 04:56:36;;;;;;;;;15.50;11.50;;;;;11.72;73.08;101994.72;5035614;28;45236;-63
2021/11/07 04:59:03;;;;;;;;;18.00;14.75;;;;;11.74;72.77;102007.84;5036213;28;45317;-63
2021/11/07 05:01:28;;;;;;;;;15.00;11.50;;;;;11.74;72.63;102002.56;5038926;28;45460;-63
2021/11/07 05:03:54;;;;;;;;;12.75;12.50;;;;;11.74;72.70;102008.69;5036377;28;45298;-63
2021/11/07 05:06:19;;;;;;;;;13.75;13.00;;;;;11.75;73.01;101994.56;5038469;28;45318;-63
2021/11/07 05:08:45;;;;;;;;;17.00;12.00;;;;;11.74;72.85;101994.66;5036667;28;46420;-63
2021/11/07 05:11:10;;;;;;;;;13.50;11.50;;;;;11.75;72.66;101993.72;5022331;28;45588;-63
2021/11/07 05:13:36;;;;;;;;;14.25;14.25;;;;;11.72;72.73;101992.09;5033904;28;45518;-63
2021/11/07 05:16:01;;;;;;;;;14.75;10.50;;;;;11.73;72.64;101977.09;5038287;28;46149;-63
2021/11/07 05:18:27;;;;;;;;;12.00;12.00;;;;;11.74;72.84;101977.03;5036878;28;45492;-63
2021/11/07 05:20:52;;;;;;;;;14.00;14.00;;;;;11.75;72.90;101977.88;5037586;28;45433;-63
2021/11/07 05:23:18;;;;;;;;;14.25;13.00;;;;;11.74;72.96;101984.94;5035673;28;45384;-63
2021/11/07 05:25:44;;;;;;;;;14.00;10.75;;;;;11.75;73.04;101991.94;5038314;28;46255;-63
2021/11/07 05:28:10;;;;;;;;;11.25;10.75;;;;;11.78;72.87;101985.69;5035149;28;45403;-63
2021/11/07 05:30:36;;;;;;;;;12.50;10.00;;;;;11.81;72.73;101982.06;5038020;28;45260;-63
2021/11/07 05:33:03;;;;;;;;;15.75;10.50;;;;;11.82;73.02;101984.63;5034822;28;45634;-63
2021/11/07 05:35:28;;;;;;;;;11.75;10.50;;;;;11.88;72.83;101987.00;5035548;28;45336;-63
2021/11/07 05:37:54;;;;;;;;;10.50;9.00;;;;;11.89;72.78;101972.03;5035662;28;45321;-64
2021/11/07 05:40:20;;;;;;;;;16.00;11.50;;;;;11.90;72.96;101961.38;5037931;28;45446;-63
2021/11/07 05:42:47;;;;;;;;;12.25;12.25;;;;;11.91;72.75;101964.88;5036860;28;45332;-63
2021/11/07 05:45:13;;;;;;;;;10.00;10.00;;;;;11.93;73.18;101973.63;5037061;28;45385;-63
2021/11/07 05:47:38;;;;;;;;;13.50;10.00;;;;;11.95;73.12;101962.06;5035332;28;45213;-63
2021/11/07 05:50:06;;;;;;;;;13.75;10.25;;;;;11.96;73.14;101965.53;5038137;28;45160;-63
2021/11/07 05:52:32;;;;;;;;;10.50;8.75;;;;;11.97;72.85;101959.34;5031907;28;45336;-63
2021/11/07 05:54:58;;;;;;;;;10.50;9.50;;;;;12.00;72.88;101960.03;5037039;28;45344;-63
2021/11/07 05:57:24;;;;;;;;;9.75;9.75;;;;;12.01;72.64;101968.84;5035391;28;45336;-63
2021/11/07 05:59:50;;;;;;;;;14.00;10.00;;;;;12.03;72.91;101966.97;5037960;28;45417;-63
2021/11/07 06:02:15;;;;;;;;;11.00;9.00;;;;;12.05;72.68;101973.03;5035472;28;45332;-64
2021/11/07 06:04:41;;;;;;;;;8.00;8.00;;;;;12.09;73.00;101968.50;5036667;28;46650;-63
2021/11/07 06:07:07;;;;;;;;;11.50;9.75;;;;;12.10;72.85;101978.97;5036335;28;45538;-64
2021/11/07 06:09:32;;;;;;;;;12.75;12.75;;;;;12.11;72.77;101975.41;5036758;28;45427;-64
2021/11/07 06:11:58;;;;;;;;;10.00;10.00;;;;;12.14;72.69;101979.69;5032393;28;45614;-63
2021/11/07 06:14:24;;;;;;;;;10.00;8.75;;;;;12.14;72.77;101984.97;5037484;28;45484;-64
2021/11/07 06:16:49;;;;;;;;;15.50;13.00;;;;;12.14;73.17;101983.19;5035823;28;45438;-63
2021/11/07 06:19:15;;;;;;;;;11.25;10.00;;;;;12.16;73.02;101981.31;5017017;28;45494;-63
2021/11/07 06:21:41;;;;;;;;;13.75;11.50;;;;;12.17;73.10;101976.94;5035326;28;45617;-63
2021/11/07 06:24:08;;;;;;;;;13.50;10.00;;;;;12.17;72.90;101974.28;5036561;28;45672;-64
2021/11/07 06:26:34;;;;;;;;;14.50;13.50;;;;;12.18;73.09;101976.00;5034877;28;45546;-63
2021/11/07 06:28:59;;;;;;;;;9.50;8.00;;;;;12.17;73.01;101971.63;5036885;28;46745;-64
2021/11/07 06:31:26;;;;;;;;;10.75;9.50;;;;;12.15;73.28;101978.75;5036555;28;45291;-63
2021/11/07 06:33:51;;;;;;;;;10.75;10.00;;;;;12.17;73.05;101966.34;5035956;28;45975;-64
2021/11/07 06:36:17;;;;;;;;;11.25;9.50;;;;;12.19;73.11;101975.91;5034259;28;45479;-63
2021/11/07 06:38:43;;;;;;;;;8.75;8.00;;;;;12.19;73.24;101965.34;5037194;28;45189;-64
2021/11/07 06:41:09;;;;;;;;;8.00;8.00;;;;;12.22;73.16;101961.69;5035807;28;45351;-63
2021/11/07 06:43:34;;;;;;;;;10.25;8.75;;;;;12.22;73.12;101964.34;5036048;28;45341;-63
2021/11/07 06:46:00;;;;;;;;;9.00;7.75;;;;;12.22;73.19;101949.34;5036157;28;45281;-64
2021/11/07 06:48:26;;;;;;;;;10.75;8.25;;;;;12.22;73.39;101954.63;5035375;28;45229;-64
2021/11/07 06:50:52;;;;;;;;;13.75;11.00;;;;;12.23;73.32;101952.84;5038813;28;45417;-63
2021/11/07 06:53:17;;;;;;;;;8.25;7.75;;;;;12.23;73.36;101964.25;5033392;28;45435;-64
2021/11/07 06:55:43;;;;;;;;;13.75;12.00;;;;;12.24;73.46;101959.84;5036044;28;45248;-63
2021/11/07 06:58:10;;;;;;;;;6.50;5.75;;;;;12.24;73.35;101966.00;5035792;28;45318;-63
2021/11/07 07:00:36;;;;;;;;;10.50;8.50;;;;;12.26;73.48;101960.63;5034556;28;45331;-63
2021/11/07 07:03:01;;;;;;;;;11.00;9.00;;;;;12.24;73.60;101958.06;5036671;28;45407;-64
2021/11/07 07:05:27;;;;;;;;;9.50;8.50;;;;;12.23;73.73;101948.41;5035715;28;45326;-64
2021/11/07 07:07:56;;;;;;;;;9.00;7.25;;;;;12.24;73.84;101947.50;5036041;28;45526;-64
2021/11/07 07:10:35;;;;;;;;;15.00;9.25;;;;;12.25;73.61;101948.38;5032621;28;45414;-63
2021/11/07 07:15:34;;;;;;;;;11.75;9.00;;;;;12.26;74.04;101950.06;5033931;28;45468;-64
2021/11/07 07:26:30;;;;;;;;;13.00;11.00;;;;;12.32;74.28;101943.63;5025239;28;45467;-63
2021/11/07 07:29:02;;;;;;;;;11.00;11.00;;;;;12.31;74.35;101942.75;5032794;28;45455;-64
2021/11/07 07:34:43;;;;;;;;;10.00;10.00;;;;;12.28;74.29;101972.84;5031989;28;45350;-63
2021/11/07 07:36:41;;;;;;;;;12.50;8.75;;;;;12.28;74.31;101959.63;5026756;28;45595;-63
2021/11/07 07:39:08;;;;;;;;;10.50;10.00;;;;;12.26;74.49;101958.84;5018943;28;45333;-63
2021/11/07 07:41:34;;;;;;;;;7.75;5.00;;;;;12.23;74.48;101969.53;5030532;28;45330;-63
2021/11/07 07:44:07;;;;;;;;;9.25;9.25;;;;;12.22;74.34;101970.47;5030883;28;46473;-61
2021/11/07 07:46:37;;;;;;;;;7.00;7.00;;;;;12.24;74.44;101970.41;5031803;28;45573;-63
2021/11/07 07:49:03;;;;;;;;;6.50;5.50;;;;;12.27;74.35;101972.91;5034014;28;45226;-63
2021/11/07 07:51:30;;;;;;;;;8.75;8.75;;;;;12.30;74.65;101963.03;5032373;28;45591;-63
2021/11/07 07:53:59;;;;;;;;;10.75;9.00;;;;;12.35;74.39;101952.28;5032979;28;45267;-64
2021/11/07 07:56:27;;;;;;;;;9.25;6.50;;;;;12.37;74.02;101941.63;5031860;28;45422;-64
2021/11/07 07:58:53;;;;;;;;;9.50;8.75;;;;;12.35;74.05;101947.00;5034532;28;45225;-63
2021/11/07 08:01:19;;;;;;;;;11.75;8.75;;;;;12.36;74.21;101961.06;5037341;28;45594;-63
2021/11/07 08:03:44;;;;;;;;;10.00;9.00;;;;;12.39;74.59;101959.13;5036929;28;45418;-64
2021/11/07 08:06:10;;;;;;;;;11.75;9.75;;;;;12.43;74.28;101960.69;5035569;28;45459;-64
2021/11/07 08:08:35;;;;;;;;;16.50;14.50;;;;;12.47;74.31;101950.81;5034980;28;45356;-64
2021/11/07 08:11:02;;;;;;;;;28.00;25.00;;;;;12.52;74.34;101956.75;5023581;28;45502;-64
2021/11/07 08:13:28;;;;;;;;;8.50;7.75;;;;;12.54;74.06;101966.31;5034589;28;45555;-63
2021/11/07 08:15:54;;;;;;;;;10.75;10.00;;;;;12.55;73.98;101965.38;5039224;28;45474;-63
2021/11/07 08:18:20;;;;;;;;;11.00;8.00;;;;;12.57;74.08;101970.63;5036354;28;45324;-64
2021/11/07 08:20:47;;;;;;;;;8.75;8.00;;;;;12.60;73.91;101965.16;5032879;28;45366;-63
2021/11/07 08:23:13;;;;;;;;;4.00;4.00;;;;;12.63;74.02;101959.72;5037560;28;45364;-63
2021/11/07 08:25:39;;;;;;;;;8.25;8.00;;;;;12.65;73.89;101955.25;5033030;28;45464;-64
2021/11/07 08:28:06;;;;;;;;;9.25;8.25;;;;;12.68;73.69;101948.94;5033996;28;45360;-63
2021/11/07 08:30:35;;;;;;;;;7.50;6.50;;;;;12.70;73.71;101957.66;5035467;28;46139;-62
2021/11/07 08:33:01;;;;;;;;;10.00;8.00;;;;;12.71;73.71;101948.78;5037794;28;45379;-64
2021/11/07 08:35:28;;;;;;;;;12.75;8.75;;;;;12.73;73.71;101953.09;5038938;28;45660;-58
2021/11/07 08:37:59;;;;;;;;;5.50;5.50;;;;;12.78;73.64;101934.34;5037333;28;45229;-61
2021/11/07 08:40:30;;;;;;;;;9.25;6.50;;;;;12.82;73.79;101934.13;5032969;28;45400;-67
2021/11/07 08:43:09;;;;;;;;;6.00;4.75;;;;;12.82;73.39;101939.41;5037331;28;45394;-63
2021/11/07 09:02:39;;;;;;;;;8.75;6.25;;;;;12.82;74.88;101933.25;4996356;28;45511;-64
2021/11/07 09:05:09;;;;;;;;;10.00;7.50;;;;;12.81;74.76;101932.41;5035305;28;46447;-64
2021/11/07 09:08:24;;;;;;;;;8.00;7.50;;;;;12.77;74.65;101925.53;5036636;28;45397;-64
2021/11/07 09:10:27;;;;;;;;;8.50;8.25;;;;;12.73;74.82;101936.38;5010965;28;45476;-64
2021/11/07 09:12:52;;;;;;;;;5.25;5.00;;;;;12.70;75.20;101940.00;5037399;28;45463;-66
2021/11/07 09:15:20;;;;;;;;;10.75;9.75;;;;;12.74;75.09;101928.34;5016857;28;45396;-62
2021/11/07 09:17:47;;;;;;;;;5.50;4.00;;;;;12.73;75.04;101924.00;5034043;28;45552;-61
2021/11/07 09:20:20;;;;;;;;;8.00;6.00;;;;;12.75;75.47;101931.84;5037859;28;45334;-61
2021/11/07 09:23:25;;;;;;;;;6.25;5.00;;;;;12.77;75.14;101937.91;5038036;28;45291;-61
2021/11/07 09:25:50;;;;;;;;;9.25;8.00;;;;;12.80;75.25;101929.84;5031914;28;45346;-61
2021/11/07 09:28:36;;;;;;;;;6.25;6.25;;;;;12.83;74.96;101938.47;5035237;28;45476;-61
2021/11/07 09:31:30;;;;;;;;;9.00;8.50;;;;;12.90;74.87;101936.38;5033017;28;45395;-61
2021/11/07 09:36:39;;;;;;;;;11.00;7.75;;;;;13.16;74.74;101927.13;5031911;28;46205;-61
2021/11/07 09:39:16;;;;;;;;;7.75;5.25;;;;;13.26;74.53;101930.19;5032772;28;45324;-61
2021/11/07 09:44:12;;;;;;;;;7.00;6.00;;;;;13.39;74.27;101929.47;5035931;28;45500;-61
2021/11/07 09:46:42;;;;;;;;;5.00;5.00;;;;;13.39;74.17;101921.53;5036076;28;45458;-61
2021/11/07 09:49:24;;;;;;;;;9.00;6.00;;;;;13.42;73.97;101931.09;5029580;28;45253;-61
2021/11/07 09:52:07;;;;;;;;;6.75;5.50;;;;;13.46;73.85;101943.25;5028692;28;45323;-61
2021/11/07 09:54:33;;;;;;;;;7.25;7.00;;;;;13.51;73.72;101949.16;5014092;28;45337;-61
2021/11/07 09:57:00;;;;;;;;;6.25;5.25;;;;;13.60;73.61;101951.34;5031622;28;45495;-61
2021/11/07 09:59:28;;;;;;;;;4.00;3.75;;;;;13.66;73.54;101937.75;5030546;28;45372;-63
2021/11/07 10:01:58;;;;;;;;;4.50;4.50;;;;;13.73;73.33;101945.38;5031582;28;45491;-64
2021/11/07 10:04:26;;;;;;;;;6.00;4.75;;;;;13.84;73.20;101935.09;5037912;28;45478;-63
2021/11/07 10:06:57;;;;;;;;;4.50;4.50;;;;;13.92;73.25;101952.28;5029989;28;45930;-62
2021/11/07 10:09:37;;;;;;;;;5.00;3.00;;;;;13.97;72.95;101952.00;5031986;28;46269;-62
2021/11/07 10:12:07;;;;;;;;;5.00;4.75;;;;;13.97;72.82;101950.19;5030182;28;45567;-63
2021/11/07 10:14:57;;;;;;;;;5.00;4.75;;;;;13.96;72.64;101950.28;5038426;28;45498;-63
2021/11/07 10:17:40;;;;;;;;;5.25;4.50;;;;;13.93;72.76;101956.63;5039272;28;45521;-63
2021/11/07 10:22:56;;;;;;;;;3.75;3.75;;;;;13.91;73.02;101944.41;5030210;28;45292;-62
2021/11/07 10:25:29;;;;;;;;;5.75;4.00;;;;;13.95;72.77;101948.59;5037058;28;45604;-74
2021/11/07 10:27:57;;;;;;;;;5.25;5.00;;;;;14.01;72.34;101944.75;5018109;28;45909;-67
2021/11/07 10:30:26;;;;;;;;;6.75;5.00;;;;;14.06;72.43;101942.69;5018600;28;45548;-64
2021/11/07 10:40:35;;;;;;;;;8.50;6.00;;;;;14.24;71.99;101969.06;5010561;28;45423;-67
2021/11/07 10:53:48;;;;;;;;;5.75;4.50;;;;;14.45;71.19;101968.78;5017518;28;45285;-65
2021/11/07 10:56:14;;;;;;;;;4.75;3.00;;;;;14.44;70.47;101961.78;5020393;28;45603;-65
2021/11/07 10:58:42;;;;;;;;;9.50;3.75;;;;;14.42;70.36;101961.88;5020031;28;45600;-65
2021/11/07 11:01:13;;;;;;;;;5.00;4.50;;;;;14.42;70.29;101959.22;5016503;28;45393;-65
2021/11/07 11:03:43;;;;;;;;;4.75;4.75;;;;;14.48;70.04;101960.72;5020433;28;45624;-65
2021/11/07 11:06:13;;;;;;;;;6.00;4.00;;;;;14.47;69.91;101964.31;5020486;28;45399;-65
2021/11/07 11:08:42;;;;;;;;;4.50;4.25;;;;;14.48;69.96;101966.03;5019958;28;45358;-65
2021/11/07 11:14:07;;;;;;;;;4.00;4.00;;;;;14.49;69.61;101957.97;5020488;28;45417;-65
2021/11/07 11:25:22;;;;;;;;;10.50;3.00;;;;;14.43;69.11;101938.88;5020115;28;45252;-64
2021/11/07 11:33:40;;;;;;;;;5.25;4.00;;;;;14.69;68.15;101921.50;5020092;28;45374;-64
2021/11/07 11:36:30;;;;;;;;;12.00;3.00;;;;;14.79;67.95;101925.34;5018757;28;45260;-65
2021/11/07 11:39:05;;;;;;;;;5.25;2.25;;;;;14.88;67.31;101922.16;5023417;28;45408;-65
2021/11/07 11:41:44;;;;;;;;;4.50;2.00;;;;;14.97;66.38;101932.22;5023565;28;46169;-64
2021/11/07 11:44:13;;;;;;;;;5.25;3.00;;;;;15.04;65.88;101925.63;5022179;28;45258;-64
2021/11/07 11:46:51;;;;;;;;;3.00;3.00;;;;;15.06;64.83;101925.53;5023416;28;45261;-64
2021/11/07 11:49:55;;;;;;;;;4.75;1.75;;;;;15.07;64.43;101919.25;5023558;28;45454;-64
2021/11/07 11:55:16;;;;;;;;;6.50;2.50;;;;;15.07;64.15;101920.13;5022984;28;45175;-64
2021/11/07 11:58:29;;;;;;;;;5.00;3.50;;;;;15.04;63.30;101908.84;5023443;28;45569;-65
2021/11/07 12:01:10;;;;;;;;;6.50;2.75;;;;;15.05;63.17;101922.03;5012556;28;45508;-64
2021/11/07 12:04:01;;;;;;;;;2.25;1.50;;;;;15.07;63.05;101919.25;5023279;28;46447;-64
2021/11/07 12:09:43;;;;;;;;;4.25;3.25;;;;;15.04;62.95;101917.66;5023169;28;45294;-64
2021/11/07 12:12:27;;;;;;;;;7.50;2.00;;;;;15.04;63.25;101919.47;5022962;28;45298;-65
2021/11/07 12:14:55;;;;;;;;;8.00;4.50;;;;;14.93;62.83;101925.41;5022722;28;45461;-64
2021/11/07 12:17:37;;;;;;;;;6.00;2.75;;;;;14.85;63.17;101914.38;5022793;28;45217;-64
2021/11/07 12:20:28;;;;;;;;;7.25;3.75;;;;;14.80;62.62;101913.78;5023053;28;45340;-64
2021/11/07 12:23:18;;;;;;;;;4.50;3.00;;;;;14.72;63.14;101908.94;5017730;28;45360;-65
2021/11/07 12:25:45;;;;;;;;;4.25;3.50;;;;;14.68;63.39;101909.19;5018958;28;45733;-65
2021/11/07 12:28:12;;;;;;;;;7.00;3.25;;;;;14.61;63.28;101911.34;5022400;28;45292;-64
2021/11/07 12:30:40;;;;;;;;;4.50;3.25;;;;;14.54;63.00;101914.44;5022866;28;45333;-65
2021/11/07 12:33:16;;;;;;;;;8.00;4.75;;;;;14.51;62.92;101902.19;5022868;28;45245;-65
2021/11/07 12:35:47;;;;;;;;;6.00;3.75;;;;;14.49;63.36;101917.34;5013160;28;45427;-64
2021/11/07 12:41:04;;;;;;;;;6.00;5.00;;;;;14.66;63.41;101908.44;5002935;28;45339;-64
2021/11/07 12:43:30;;;;;;;;;7.25;3.75;;;;;14.74;63.36;101893.78;5002042;28;45459;-64
2021/11/07 12:46:10;;;;;;;;;10.50;3.00;;;;;14.80;63.27;101889.91;5002633;28;45167;-64
2021/11/07 12:48:46;;;;;;;;;3.75;3.25;;;;;14.90;63.16;101892.88;5002632;28;45404;-65
2021/11/07 12:51:20;;;;;;;;;2.00;2.00;;;;;14.98;62.29;101896.78;5002757;28;45496;-65
2021/11/07 12:54:03;;;;;;;;;5.00;2.00;;;;;15.02;61.73;101892.16;4984764;28;45534;-65
2021/11/07 12:56:30;;;;;;;;;4.25;3.00;;;;;15.05;61.37;101905.25;5002268;28;46627;-65
2021/11/07 12:58:57;;;;;;;;;6.25;1.75;;;;;15.05;61.29;101905.25;5002308;28;45305;-65
2021/11/07 13:01:23;;;;;;;;;4.00;2.00;;;;;15.06;60.84;101901.63;5002703;28;45452;-64
2021/11/07 13:03:52;;;;;;;;;4.00;3.75;;;;;15.08;60.96;101907.69;5002548;28;45178;-65
2021/11/07 13:06:19;;;;;;;;;5.00;3.00;;;;;15.03;60.47;101904.50;5002329;28;45335;-65
2021/11/07 13:08:54;;;;;;;;;4.25;2.00;;;;;14.99;60.82;101905.59;5001995;28;45305;-65
2021/11/07 13:11:25;;;;;;;;;5.50;3.25;;;;;14.95;60.74;101907.59;5002323;28;45343;-65
2021/11/07 13:14:11;;;;;;;;;1.75;1.00;;;;;14.97;60.76;101900.38;5002395;28;45459;-64
2021/11/07 13:29:28;;;;;;;;;8.25;3.25;;;;;14.96;59.54;101888.06;5021969;28;45198;-65
2021/11/07 13:34:29;;;;;;;;;6.00;2.75;;;;;14.93;59.95;101893.56;5021747;28;45299;-65